createdAt,value
2019-06-15T00:00:10.284Z,12.00
2019-06-15T00:02:39.077Z,14.20
2019-06-15T00:05:09.225Z,14.07
2019-06-15T00:07:37.805Z,13.97
2019-06-15T00:10:07.614Z,14.07
2019-06-15T00:12:38.008Z,15.20
2019-06-15T00:15:07.450Z,15.33
2019-06-15T00:17:35.887Z,15.33
2019-06-15T00:20:08.483Z,15.40
2019-06-15T00:22:37.057Z,15.53
2019-06-15T00:25:08.420Z,14.23
2019-06-15T00:27:36.975Z,15.33
2019-06-15T00:30:10.285Z,14.77
2019-06-15T00:32:40.336Z,15.30
2019-06-15T00:35:10.112Z,16.03
2019-06-15T00:37:40.520Z,15.13
2019-06-15T00:40:09.652Z,14.90
2019-06-15T00:42:38.174Z,15.20
2019-06-15T00:45:07.444Z,14.80
2019-06-15T00:47:36.214Z,14.50
2019-06-15T00:50:06.712Z,15.10
2019-06-15T00:52:35.344Z,14.40
2019-06-15T00:55:06.132Z,14.70
2019-06-15T00:57:38.306Z,13.57
2019-06-15T01:00:12.200Z,14.83
2019-06-15T01:02:42.175Z,14.73
2019-06-15T01:05:10.944Z,14.30
2019-06-15T01:07:39.459Z,15.87
2019-06-15T01:10:09.264Z,14.13
2019-06-15T01:12:37.796Z,14.43
2019-06-15T01:15:07.267Z,14.47
2019-06-15T01:17:35.984Z,14.23
2019-06-15T01:20:06.376Z,14.30
2019-06-15T01:22:34.808Z,15.00
2019-06-15T01:25:06.103Z,15.77
2019-06-15T01:27:34.728Z,15.87
2019-06-15T01:30:05.043Z,14.43
2019-06-15T01:32:33.552Z,15.03
2019-06-15T01:35:01.994Z,15.67
2019-06-15T01:37:30.463Z,15.00
2019-06-15T01:39:58.892Z,14.67
2019-06-15T01:42:27.370Z,14.80
2019-06-15T01:44:55.874Z,16.27
2019-06-15T01:47:24.418Z,16.07
2019-06-15T01:49:52.966Z,16.07
2019-06-15T01:52:25.722Z,15.27
2019-06-15T01:54:54.168Z,15.13
2019-06-15T01:57:22.782Z,15.67
2019-06-15T01:59:51.961Z,14.67
2019-06-15T02:02:20.435Z,14.23
2019-06-15T02:04:49.187Z,15.23
2019-06-15T02:07:17.618Z,14.70
2019-06-15T02:09:46.083Z,15.27
2019-06-15T02:12:14.523Z,14.27
2019-06-15T02:14:42.982Z,14.97
2019-06-15T02:17:11.728Z,14.27
2019-06-15T02:19:40.198Z,15.43
2019-06-15T02:22:08.666Z,15.90
2019-06-15T02:24:37.184Z,15.23
2019-06-15T02:27:05.791Z,15.60
2019-06-15T02:29:34.261Z,15.63
2019-06-15T02:32:02.721Z,14.83
2019-06-15T02:34:31.199Z,14.50
2019-06-15T02:36:59.708Z,14.33
2019-06-15T02:39:28.837Z,14.07
2019-06-15T02:41:57.316Z,15.27
2019-06-15T02:44:44.640Z,14.70
2019-06-15T02:47:13.095Z,14.83
2019-06-15T02:49:41.533Z,14.47
2019-06-15T02:52:10.380Z,13.17
2019-06-15T02:54:38.970Z,13.83
2019-06-15T02:57:07.478Z,14.27
2019-06-15T02:59:35.936Z,13.43
2019-06-15T03:02:04.732Z,15.47
2019-06-15T03:04:33.279Z,14.03
2019-06-15T03:07:01.785Z,13.93
2019-06-15T03:09:31.121Z,14.13
2019-06-15T03:12:00.266Z,15.90
2019-06-15T03:14:29.559Z,15.57
2019-06-15T03:16:58.229Z,13.90
2019-06-15T03:19:26.754Z,12.80
2019-06-15T03:21:55.279Z,14.53
2019-06-15T03:24:24.407Z,13.33
2019-06-15T03:26:52.862Z,14.97
2019-06-15T03:29:21.323Z,15.07
2019-06-15T03:31:49.836Z,13.67
2019-06-15T03:34:18.579Z,13.03
2019-06-15T03:36:47.014Z,14.50
2019-06-15T03:39:15.484Z,14.00
2019-06-15T03:41:46.696Z,14.07
2019-06-15T03:44:15.227Z,14.00
2019-06-15T03:46:43.679Z,14.07
2019-06-15T03:49:12.151Z,13.40
2019-06-15T03:51:40.590Z,15.40
2019-06-15T03:54:09.054Z,15.37
2019-06-15T03:56:37.506Z,16.63
2019-06-15T03:59:06.094Z,17.97
2019-06-15T04:01:40.528Z,15.70
2019-06-15T04:04:09.423Z,16.87
2019-06-15T04:06:37.868Z,16.87
2019-06-15T04:09:07.836Z,17.47
2019-06-15T04:11:36.339Z,18.83
2019-06-15T04:14:05.334Z,19.50
2019-06-15T04:16:35.435Z,20.50
2019-06-15T04:19:05.219Z,20.43
2019-06-15T04:21:33.875Z,20.83
2019-06-15T04:24:02.396Z,19.43
2019-06-15T04:26:36.129Z,18.97
2019-06-15T04:29:01.019Z,21.30
2019-06-15T04:31:29.479Z,21.00
2019-06-15T04:33:58.050Z,20.70
2019-06-15T04:36:26.532Z,21.37
2019-06-15T04:38:54.958Z,22.00
2019-06-15T04:41:23.499Z,20.37
2019-06-15T04:43:51.938Z,19.20
2019-06-15T04:46:20.413Z,19.40
2019-06-15T04:48:48.855Z,19.37
2019-06-15T04:51:17.315Z,19.23
2019-06-15T04:53:45.756Z,17.83
2019-06-15T04:56:14.215Z,19.30
2019-06-15T04:58:42.654Z,18.03
2019-06-15T05:01:11.119Z,19.43
2019-06-15T05:03:39.582Z,17.33
2019-06-15T05:06:08.098Z,18.43
2019-06-15T05:08:36.895Z,17.53
2019-06-15T05:11:05.366Z,17.33
2019-06-15T05:13:33.814Z,17.27
2019-06-15T05:16:02.270Z,16.00
2019-06-15T05:18:30.707Z,16.13
2019-06-15T05:20:59.173Z,16.97
2019-06-15T05:23:27.683Z,17.73
2019-06-15T05:25:56.140Z,14.50
2019-06-15T05:28:24.619Z,16.00
2019-06-15T05:30:53.152Z,15.87
2019-06-15T05:33:21.586Z,16.37
2019-06-15T05:35:50.049Z,17.47
2019-06-15T05:38:18.780Z,15.90
2019-06-15T05:40:47.235Z,17.30
2019-06-15T05:43:15.674Z,17.87
2019-06-15T05:45:44.143Z,18.40
2019-06-15T05:48:12.584Z,17.23
2019-06-15T05:50:41.032Z,17.37
2019-06-15T05:53:09.495Z,19.50
2019-06-15T05:55:37.942Z,19.17
2019-06-15T05:58:06.459Z,19.47
2019-06-15T06:00:34.970Z,18.80
2019-06-15T06:03:03.443Z,19.47
2019-06-15T06:05:31.887Z,17.80
2019-06-15T06:08:00.355Z,19.37
2019-06-15T06:10:28.790Z,17.43
2019-06-15T06:12:57.248Z,17.97
2019-06-15T06:15:26.933Z,18.47
2019-06-15T06:17:55.511Z,17.33
2019-06-15T06:20:23.949Z,17.33
2019-06-15T06:22:52.402Z,17.33
2019-06-15T06:25:20.928Z,16.83
2019-06-15T06:27:49.380Z,16.97
2019-06-15T06:30:18.197Z,16.17
2019-06-15T06:32:46.711Z,14.80
2019-06-15T06:35:15.586Z,15.67
2019-06-15T06:37:44.086Z,15.17
2019-06-15T06:40:12.799Z,16.17
2019-06-15T06:42:41.531Z,15.03
2019-06-15T06:45:11.089Z,16.03
2019-06-15T06:47:40.359Z,16.10
2019-06-15T06:50:09.457Z,16.83
2019-06-15T06:52:37.914Z,14.87
2019-06-15T06:55:06.783Z,15.97
2019-06-15T06:57:35.276Z,16.17
2019-06-15T07:00:07.824Z,16.23
2019-06-15T07:02:36.287Z,16.73
2019-06-15T07:05:06.383Z,15.93
2019-06-15T07:07:35.276Z,16.70
2019-06-15T07:10:05.689Z,14.77
2019-06-15T07:12:34.247Z,15.90
2019-06-15T07:15:04.720Z,16.23
2019-06-15T07:17:32.928Z,16.10
2019-06-15T07:20:01.488Z,16.20
2019-06-15T07:22:30.025Z,15.20
2019-06-15T07:24:58.454Z,14.43
2019-06-15T07:27:26.943Z,16.03
2019-06-15T07:29:55.381Z,15.63
2019-06-15T07:32:23.918Z,15.50
2019-06-15T07:34:52.444Z,15.57
2019-06-15T07:37:20.947Z,13.40
2019-06-15T07:39:49.438Z,14.53
2019-06-15T07:42:17.935Z,14.70
2019-06-15T07:44:46.398Z,14.87
2019-06-15T07:47:14.854Z,14.30
2019-06-15T07:49:43.330Z,14.27
2019-06-15T07:52:11.767Z,12.50
2019-06-15T07:54:40.330Z,12.77
2019-06-15T07:57:08.772Z,11.13
2019-06-15T07:59:37.303Z,12.57
2019-06-15T08:02:05.811Z,12.03
2019-06-15T08:04:34.297Z,12.40
2019-06-15T08:07:02.861Z,12.30
2019-06-15T08:09:31.327Z,13.63
2019-06-15T08:11:59.756Z,12.47
2019-06-15T08:14:28.218Z,13.47
2019-06-15T08:16:56.660Z,13.53
2019-06-15T08:19:25.116Z,12.37
2019-06-15T08:21:53.631Z,13.10
2019-06-15T08:24:22.094Z,11.90
2019-06-15T08:26:50.536Z,12.57
2019-06-15T08:29:19.008Z,12.17
2019-06-15T08:31:47.438Z,14.70
2019-06-15T08:34:15.901Z,13.40
2019-06-15T08:36:44.335Z,13.83
2019-06-15T08:39:12.803Z,12.30
2019-06-15T08:41:41.489Z,11.80
2019-06-15T08:44:10.034Z,12.70
2019-06-15T08:46:38.524Z,13.03
2019-06-15T08:49:07.027Z,12.07
2019-06-15T08:51:35.500Z,13.40
2019-06-15T08:54:03.933Z,12.37
2019-06-15T08:56:33.685Z,12.90
2019-06-15T08:59:02.126Z,12.70
2019-06-15T09:01:30.638Z,12.67
2019-06-15T09:03:59.106Z,12.07
2019-06-15T09:06:27.596Z,11.63
2019-06-15T09:08:56.042Z,11.33
2019-06-15T09:11:24.510Z,9.00
2019-06-15T09:13:53.023Z,12.37
2019-06-15T09:16:21.956Z,11.97
2019-06-15T09:18:50.410Z,11.53
2019-06-15T09:21:18.942Z,10.13
2019-06-15T09:23:47.439Z,10.57
2019-06-15T09:26:16.321Z,10.87
2019-06-15T09:28:44.839Z,11.10
2019-06-15T09:31:13.332Z,10.30
2019-06-15T09:33:41.855Z,9.93
2019-06-15T09:36:10.376Z,9.07
2019-06-15T09:38:38.838Z,11.00
2019-06-15T09:41:07.409Z,10.80
2019-06-15T09:43:35.876Z,11.17
2019-06-15T09:46:04.651Z,10.53
2019-06-15T09:48:33.085Z,11.30
2019-06-15T09:51:02.235Z,10.63
2019-06-15T09:53:30.694Z,10.27
2019-06-15T09:55:59.246Z,9.17
2019-06-15T09:58:27.749Z,10.60
2019-06-15T10:00:56.187Z,10.17
2019-06-15T10:03:24.664Z,10.50
2019-06-15T10:05:53.218Z,8.37
2019-06-15T10:08:21.674Z,8.83
2019-06-15T10:10:50.121Z,8.47
2019-06-15T10:13:18.913Z,8.00
2019-06-15T10:15:47.483Z,9.67
2019-06-15T10:18:16.260Z,9.77
2019-06-15T10:20:44.697Z,9.63
2019-06-15T10:23:13.627Z,9.83
2019-06-15T10:25:42.140Z,10.40
2019-06-15T10:28:10.739Z,9.67
2019-06-15T10:30:39.174Z,10.20
2019-06-15T10:33:07.635Z,8.70
2019-06-15T10:35:36.335Z,9.20
2019-06-15T10:38:04.800Z,10.73
2019-06-15T10:40:33.258Z,10.03
2019-06-15T10:43:01.787Z,10.97
2019-06-15T10:45:30.381Z,10.10
2019-06-15T10:47:58.894Z,10.00
2019-06-15T10:50:27.343Z,9.77
2019-06-15T10:52:55.775Z,8.90
2019-06-15T10:55:24.282Z,9.40
2019-06-15T10:57:52.766Z,8.03
2019-06-15T11:00:21.716Z,7.53
2019-06-15T11:02:50.236Z,8.70
2019-06-15T11:05:20.487Z,8.50
2019-06-15T11:07:48.988Z,8.17
2019-06-15T11:10:20.525Z,8.40
2019-06-15T11:12:48.960Z,9.10
2019-06-15T11:15:17.408Z,7.47
2019-06-15T11:17:46.583Z,8.83
2019-06-15T11:20:15.308Z,9.10
2019-06-15T11:22:43.826Z,9.60
2019-06-15T11:25:12.425Z,8.70
2019-06-15T11:27:40.927Z,9.43
2019-06-15T11:30:14.154Z,10.53
2019-06-15T11:32:40.455Z,9.00
2019-06-15T11:35:09.315Z,9.40
2019-06-15T11:37:37.825Z,9.07
2019-06-15T11:40:07.524Z,10.00
2019-06-15T11:42:35.998Z,9.33
2019-06-15T11:45:06.684Z,9.90
2019-06-15T11:47:35.667Z,9.10
2019-06-15T11:50:05.443Z,9.40
2019-06-15T11:52:33.879Z,9.37
2019-06-15T11:55:02.331Z,8.87
2019-06-15T11:57:31.201Z,9.63
2019-06-15T12:00:00.046Z,9.07
2019-06-15T12:02:28.515Z,9.80
2019-06-15T12:04:58.731Z,9.17
2019-06-15T12:07:27.143Z,9.20
2019-06-15T12:09:55.592Z,8.77
2019-06-15T12:12:24.018Z,7.03
2019-06-15T12:14:52.507Z,7.10
2019-06-15T12:17:21.026Z,7.60
2019-06-15T12:19:49.454Z,6.80
2019-06-15T12:22:17.916Z,7.30
2019-06-15T12:24:46.379Z,12.23
2019-06-15T12:27:14.828Z,7.10
2019-06-15T12:29:43.262Z,7.97
2019-06-15T12:32:11.748Z,8.40
2019-06-15T12:34:40.184Z,7.33
2019-06-15T12:37:08.644Z,7.13
2019-06-15T12:39:41.661Z,6.20
2019-06-15T12:42:07.353Z,7.67
2019-06-15T12:44:35.773Z,7.17
2019-06-15T12:47:04.229Z,7.43
2019-06-15T12:49:32.795Z,7.20
2019-06-15T12:52:01.318Z,8.50
2019-06-15T12:54:29.754Z,8.03
2019-06-15T12:56:58.206Z,7.93
2019-06-15T12:59:26.740Z,7.20
2019-06-15T13:01:55.222Z,8.03
2019-06-15T13:04:23.738Z,9.10
2019-06-15T13:06:52.659Z,8.37
2019-06-15T13:09:21.095Z,7.90
2019-06-15T13:11:49.559Z,7.90
2019-06-15T13:14:18.380Z,8.03
2019-06-15T13:16:48.100Z,7.43
2019-06-15T13:19:16.816Z,7.20
2019-06-15T13:21:45.651Z,6.27
2019-06-15T13:24:14.427Z,6.63
2019-06-15T13:26:42.896Z,6.47
2019-06-15T13:29:11.339Z,6.53
2019-06-15T13:31:39.863Z,6.83
2019-06-15T13:34:08.325Z,6.73
2019-06-15T13:36:36.846Z,7.00
2019-06-15T13:39:07.018Z,6.60
2019-06-15T13:41:35.471Z,7.77
2019-06-15T13:44:03.922Z,6.47
2019-06-15T13:46:32.384Z,5.60
2019-06-15T13:49:00.811Z,6.13
2019-06-15T13:51:29.278Z,6.93
2019-06-15T13:53:57.713Z,5.97
2019-06-15T13:56:26.246Z,5.20
2019-06-15T13:58:54.697Z,6.17
2019-06-15T14:01:33.678Z,5.90
2019-06-15T14:03:53.316Z,7.53
2019-06-15T14:06:21.736Z,6.93
2019-06-15T14:08:50.225Z,6.07
2019-06-15T14:11:18.707Z,6.37
2019-06-15T14:13:47.198Z,6.37
2019-06-15T14:16:15.631Z,5.93
2019-06-15T14:18:44.101Z,6.77
2019-06-15T14:21:12.791Z,6.53
2019-06-15T14:23:41.247Z,5.53
2019-06-15T14:26:09.759Z,7.13
2019-06-15T14:28:38.211Z,6.90
2019-06-15T14:31:06.648Z,7.20
2019-06-15T14:33:35.103Z,6.20
2019-06-15T14:36:03.707Z,5.80
2019-06-15T14:38:32.278Z,6.13
2019-06-15T14:41:00.792Z,6.42
2019-06-15T14:43:29.268Z,6.13
2019-06-15T14:45:59.843Z,6.63
2019-06-15T14:48:27.938Z,6.58
2019-06-15T14:50:56.366Z,6.47
2019-06-15T14:53:25.006Z,6.00
2019-06-15T14:55:53.459Z,6.60
2019-06-15T14:58:21.906Z,6.97
2019-06-15T15:00:50.344Z,6.67
2019-06-15T15:03:19.087Z,8.30
2019-06-15T15:05:47.527Z,6.70
2019-06-15T15:08:18.099Z,5.67
2019-06-15T15:10:46.574Z,6.40
2019-06-15T15:13:15.060Z,7.15
2019-06-15T15:15:43.500Z,8.17
2019-06-15T15:18:11.940Z,5.70
2019-06-15T15:20:40.376Z,6.00
2019-06-15T15:23:08.834Z,6.57
2019-06-15T15:25:37.257Z,6.60
2019-06-15T15:28:07.371Z,6.03
2019-06-15T15:30:40.597Z,5.85
2019-06-15T15:33:09.850Z,6.58
2019-06-15T15:35:38.304Z,7.07
2019-06-15T15:38:06.848Z,5.73
2019-06-15T15:40:36.529Z,7.03
2019-06-15T15:43:06.931Z,6.97
2019-06-15T15:45:36.992Z,6.83
2019-06-15T15:48:06.841Z,7.77
2019-06-15T15:50:37.084Z,7.40
2019-06-15T15:53:06.424Z,7.40
2019-06-15T15:55:34.899Z,8.53
2019-06-15T15:58:03.375Z,7.23
2019-06-15T16:00:33.851Z,7.17
2019-06-15T16:03:02.572Z,7.03
2019-06-15T16:05:31.103Z,6.43
2019-06-15T16:07:59.786Z,7.77
2019-06-15T16:10:28.494Z,7.27
2019-06-15T16:12:56.976Z,7.27
2019-06-15T16:15:26.533Z,7.70
2019-06-15T16:17:56.351Z,7.63
2019-06-15T16:20:26.408Z,7.00
2019-06-15T16:22:56.417Z,8.13
2019-06-15T16:25:26.584Z,6.33
2019-06-15T16:27:56.663Z,6.80
2019-06-15T16:30:59.804Z,6.30
2019-06-15T16:33:04.322Z,8.97
2019-06-15T16:35:36.144Z,7.53
2019-06-15T16:38:06.596Z,8.17
2019-06-15T16:40:38.945Z,7.67
2019-06-15T16:43:07.890Z,7.20
2019-06-15T16:45:37.051Z,7.67
2019-06-15T16:48:06.424Z,8.30
2019-06-15T16:50:36.682Z,7.87
2019-06-15T16:53:05.505Z,8.83
2019-06-15T16:55:36.525Z,8.60
2019-06-15T16:58:07.139Z,9.50
2019-06-15T17:00:36.429Z,7.60
2019-06-15T17:03:19.770Z,8.10
2019-06-15T17:05:36.328Z,8.13
2019-06-15T17:08:06.939Z,7.60
2019-06-15T17:10:40.344Z,8.90
2019-06-15T17:13:09.027Z,9.23
2019-06-15T17:15:38.148Z,8.90
2019-06-15T17:18:07.232Z,9.03
2019-06-15T17:20:52.120Z,8.70
2019-06-15T17:23:21.279Z,9.83
2019-06-15T17:25:49.893Z,7.77
2019-06-15T17:28:18.667Z,8.90
2019-06-15T17:30:47.119Z,8.43
2019-06-15T17:33:16.652Z,8.40
2019-06-15T17:35:56.265Z,8.10
2019-06-15T17:38:16.746Z,7.37
2019-06-15T17:40:46.112Z,8.23
2019-06-15T17:43:16.221Z,8.57
2019-06-15T17:45:46.874Z,8.30
2019-06-15T17:48:17.113Z,7.90
2019-06-15T17:50:47.202Z,8.50
2019-06-15T17:53:16.966Z,7.17
2019-06-15T17:55:46.707Z,7.83
2019-06-15T17:58:17.021Z,9.00
2019-06-15T18:00:47.986Z,8.03
2019-06-15T18:03:17.090Z,9.00
2019-06-15T18:05:47.984Z,9.50
2019-06-15T18:08:16.702Z,8.93
2019-06-15T18:10:47.621Z,9.43
2019-06-15T18:13:16.795Z,9.13
2019-06-15T18:15:47.689Z,11.90
2019-06-15T18:18:16.776Z,8.93
2019-06-15T18:20:45.660Z,9.60
2019-06-15T18:23:17.737Z,7.80
2019-06-15T18:25:46.824Z,7.97
2019-06-15T18:28:17.569Z,8.10
2019-06-15T18:30:46.815Z,8.97
2019-06-15T18:33:16.529Z,8.70
2019-06-15T18:35:47.513Z,9.23
2019-06-15T18:38:16.467Z,8.77
2019-06-15T18:40:44.899Z,8.80
2019-06-15T18:43:14.253Z,9.27
2019-06-15T18:45:44.038Z,8.90
2019-06-15T18:48:16.870Z,10.50
2019-06-15T18:50:45.363Z,9.80
2019-06-15T18:53:13.791Z,9.20
2019-06-15T18:55:42.429Z,8.43
2019-06-15T18:58:10.865Z,9.33
2019-06-15T19:00:39.415Z,8.30
2019-06-15T19:03:07.859Z,8.40
2019-06-15T19:05:37.364Z,12.70
2019-06-15T19:08:06.821Z,8.90
2019-06-15T19:10:38.262Z,10.83
2019-06-15T19:13:07.478Z,8.43
2019-06-15T19:15:37.218Z,9.83
2019-06-15T19:18:07.631Z,10.40
2019-06-15T19:20:37.137Z,9.60
2019-06-15T19:23:07.089Z,9.93
2019-06-15T19:25:36.584Z,10.20
2019-06-15T19:28:05.478Z,16.83
2019-06-15T19:30:37.041Z,13.73
2019-06-15T19:33:05.790Z,12.47
2019-06-15T19:35:36.347Z,11.03
2019-06-15T19:38:06.373Z,12.37
2019-06-15T19:40:37.548Z,13.13
2019-06-15T19:43:06.519Z,11.40
2019-06-15T19:45:37.094Z,10.60
2019-06-15T19:48:06.637Z,9.40
2019-06-15T19:50:36.211Z,13.07
2019-06-15T19:53:07.080Z,11.87
2019-06-15T19:55:36.179Z,9.60
2019-06-15T19:58:07.234Z,9.27
2019-06-15T20:00:36.423Z,10.37
2019-06-15T20:03:06.977Z,11.90
2019-06-15T20:05:37.025Z,11.40
2019-06-15T20:08:07.023Z,11.53
2019-06-15T20:10:37.026Z,12.60
2019-06-15T20:13:07.051Z,12.03
2019-06-15T20:15:37.650Z,12.87
2019-06-15T20:18:07.017Z,15.93
2019-06-15T20:20:36.970Z,13.93
2019-06-15T20:23:07.157Z,11.27
2019-06-15T20:25:36.813Z,12.20
2019-06-15T20:28:07.057Z,12.13
2019-06-15T20:30:37.022Z,11.37
2019-06-15T20:33:07.895Z,11.10
2019-06-15T20:35:36.075Z,11.43
2019-06-15T20:38:04.675Z,11.57
2019-06-15T20:40:52.524Z,12.23
2019-06-15T20:43:20.988Z,12.30
2019-06-15T20:45:49.426Z,11.77
2019-06-15T20:48:17.883Z,12.17
2019-06-15T20:50:47.177Z,12.37
2019-06-15T20:53:16.985Z,12.73
2019-06-15T20:55:46.589Z,13.00
2019-06-15T20:58:17.073Z,11.47
2019-06-15T21:00:47.639Z,12.57
2019-06-15T21:03:16.159Z,13.27
2019-06-15T21:05:47.372Z,13.40
2019-06-15T21:08:15.971Z,12.00
2019-06-15T21:10:46.387Z,13.70
2019-06-15T21:13:16.739Z,10.97
2019-06-15T21:15:47.359Z,12.13
2019-06-15T21:18:16.386Z,11.80
2019-06-15T21:20:47.081Z,11.97
2019-06-15T21:23:16.289Z,11.93
2019-06-15T21:25:46.727Z,12.80
2019-06-15T21:28:16.917Z,11.70
2019-06-15T21:30:47.136Z,11.53
2019-06-15T21:33:15.867Z,10.47
2019-06-15T21:35:49.875Z,10.97
2019-06-15T21:38:14.491Z,12.27
2019-06-15T21:40:47.284Z,12.80
2019-06-15T21:43:14.729Z,12.83
2019-06-15T21:45:43.184Z,11.73
2019-06-15T21:48:12.044Z,12.33
2019-06-15T21:50:40.564Z,11.87
2019-06-15T21:53:09.018Z,11.57
2019-06-15T21:55:37.489Z,12.20
2019-06-15T21:58:07.663Z,10.40
2019-06-15T22:00:40.802Z,11.33
2019-06-15T22:03:09.251Z,12.33
2019-06-15T22:05:37.776Z,12.30
2019-06-15T22:08:06.519Z,12.67
2019-06-15T22:10:36.061Z,12.07
2019-06-15T22:13:06.549Z,11.20
2019-06-15T22:15:34.862Z,12.27
2019-06-15T22:18:03.292Z,11.93
2019-06-15T22:20:31.774Z,12.43
2019-06-15T22:23:01.603Z,11.73
2019-06-15T22:25:30.066Z,12.20
2019-06-15T22:27:58.683Z,13.23
2019-06-15T22:30:27.740Z,12.13
2019-06-15T22:32:56.406Z,12.07
2019-06-15T22:35:26.926Z,12.07
2019-06-15T22:37:56.222Z,12.53
2019-06-15T22:40:24.898Z,14.10
2019-06-15T22:42:53.461Z,13.60
2019-06-15T22:45:21.964Z,23.00
2019-06-15T22:47:50.480Z,24.57
2019-06-15T22:50:19.082Z,24.43
2019-06-15T22:52:47.572Z,23.37
2019-06-15T22:55:16.681Z,23.80
2019-06-15T22:57:46.082Z,26.40
2019-06-15T23:00:17.785Z,23.83
2019-06-15T23:02:46.277Z,32.73
2019-06-15T23:05:17.114Z,28.07
2019-06-15T23:07:47.170Z,33.17
2019-06-15T23:10:16.684Z,32.40
2019-06-15T23:12:46.375Z,25.07
2019-06-15T23:15:17.328Z,17.67
2019-06-15T23:17:46.655Z,19.77
2019-06-15T23:20:17.053Z,20.23
2019-06-15T23:22:46.768Z,25.67
2019-06-15T23:25:16.776Z,22.87
2019-06-15T23:27:46.930Z,21.23
2019-06-15T23:30:16.294Z,19.93
2019-06-15T23:32:46.805Z,18.43
2019-06-15T23:35:16.787Z,14.17
2019-06-15T23:37:46.472Z,14.23
2019-06-15T23:40:18.958Z,14.20
2019-06-15T23:42:48.855Z,14.47
2019-06-15T23:45:19.485Z,13.03
2019-06-15T23:47:48.279Z,13.10
2019-06-15T23:50:18.123Z,12.27
2019-06-15T23:52:48.023Z,12.70
2019-06-15T23:55:17.204Z,12.80
2019-06-15T23:57:46.468Z,13.20
